Time;durP1;ratioP1;P1;durP2;ratioP2;P2;SDS_P1;SDS_P2;PMS_P1;PMS_P2;Temp;Humidity;BMP_temperature;BMP_pressure;BME280_temperature;BME280_humidity;BME280_pressure;Samples;Min_cycle;Max_cycle;Signal;HPM_P1;HPM_P2
2021/12/28 00:00:12;;;;;;;21.00;11.23;;;;;;;6.79;93.15;99347.75;5074364;28;20424;-65
2021/12/28 00:02:40;;;;;;;21.65;10.93;;;;;;;6.73;93.50;99328.16;5072742;28;20455;-65
2021/12/28 00:05:09;;;;;;;22.52;11.23;;;;;;;6.72;93.52;99341.50;5071143;28;20102;-66
2021/12/28 00:07:37;;;;;;;21.67;11.32;;;;;;;6.70;93.32;99336.38;5056131;28;20043;-65
2021/12/28 00:10:06;;;;;;;19.83;10.70;;;;;;;6.67;94.38;99334.06;5073882;28;20040;-66
2021/12/28 00:12:36;;;;;;;24.50;10.65;;;;;;;6.69;94.06;99334.75;5072814;28;20059;-65
2021/12/28 00:15:18;;;;;;;17.30;9.63;;;;;;;6.67;93.54;99323.53;5074101;28;20105;-66
2021/12/28 00:18:17;;;;;;;16.88;9.00;;;;;;;6.73;93.85;99314.97;5073704;28;20041;-65
2021/12/28 00:20:40;;;;;;;20.05;9.77;;;;;;;6.68;93.91;99317.28;5072733;28;20044;-66
2021/12/28 00:23:13;;;;;;;19.75;9.63;;;;;;;6.60;93.75;99319.06;5072871;28;20051;-65
2021/12/28 00:25:41;;;;;;;20.08;9.35;;;;;;;6.57;93.89;99307.06;5073315;28;20045;-66
2021/12/28 00:28:08;;;;;;;15.65;8.07;;;;;;;6.53;94.69;99309.19;5071712;28;20048;-66
2021/12/28 00:30:35;;;;;;;16.80;9.05;;;;;;;6.56;93.56;99301.94;5072995;28;20044;-65
2021/12/28 00:33:03;;;;;;;23.02;9.35;;;;;;;6.60;93.81;99298.00;5071919;28;20048;-65
2021/12/28 00:35:33;;;;;;;17.95;8.73;;;;;;;6.57;94.39;99296.53;5073889;28;20052;-65
2021/12/28 00:38:03;;;;;;;18.15;8.45;;;;;;;6.58;94.62;99287.63;5073207;28;20047;-65
2021/12/28 00:40:30;;;;;;;18.98;8.43;;;;;;;6.60;94.12;99298.81;5074283;28;20041;-65
2021/12/28 00:42:57;;;;;;;18.95;8.43;;;;;;;6.68;93.84;99295.38;5073274;28;20041;-65
2021/12/28 00:45:24;;;;;;;24.15;9.25;;;;;;;6.61;93.97;99283.84;5073865;28;20398;-65
2021/12/28 00:47:51;;;;;;;15.68;8.30;;;;;;;6.56;93.50;99286.97;5056346;28;20060;-66
2021/12/28 00:50:19;;;;;;;16.48;9.07;;;;;;;6.57;93.81;99280.72;5073472;28;20052;-65
2021/12/28 00:52:47;;;;;;;17.08;8.20;;;;;;;6.58;93.12;99278.91;5074100;28;20041;-65
2021/12/28 00:55:16;;;;;;;20.85;8.50;;;;;;;6.55;93.64;99274.78;5073943;28;20041;-66
2021/12/28 00:57:42;;;;;;;19.65;8.48;;;;;;;6.50;93.60;99283.16;5072347;28;20033;-65
2021/12/28 01:00:13;;;;;;;19.13;8.88;;;;;;;6.52;93.97;99280.38;5056444;28;20052;-65
2021/12/28 01:02:40;;;;;;;16.52;8.68;;;;;;;6.57;93.86;99279.88;5082089;28;20487;-65
2021/12/28 01:05:09;;;;;;;17.65;8.05;;;;;;;6.54;94.26;99270.50;5081383;28;20037;-65
2021/12/28 01:07:36;;;;;;;18.90;8.20;;;;;;;6.69;93.70;99265.38;5064048;28;20033;-65
2021/12/28 01:10:06;;;;;;;16.58;8.63;;;;;;;6.60;94.00;99269.00;5070171;28;20040;-65
2021/12/28 01:12:33;;;;;;;15.57;8.15;;;;;;;6.58;94.02;99263.91;5073468;28;20051;-65
2021/12/28 01:14:59;;;;;;;18.17;7.72;;;;;;;6.59;94.41;99275.28;5053464;28;20539;-65
2021/12/28 01:17:26;;;;;;;19.42;8.05;;;;;;;6.72;93.62;99267.69;5053268;28;20463;-65
2021/12/28 01:19:53;;;;;;;18.80;7.85;;;;;;;6.66;93.25;99268.38;5051125;28;20041;-65
2021/12/28 01:22:20;;;;;;;22.92;7.57;;;;;;;6.71;93.67;99273.94;5051738;28;20115;-65
2021/12/28 01:24:46;;;;;;;15.75;6.80;;;;;;;6.63;93.63;99263.44;5053439;28;20037;-65
2021/12/28 01:27:14;;;;;;;16.35;7.53;;;;;;;6.60;94.46;99263.75;5053165;28;20107;-65
2021/12/28 01:29:41;;;;;;;14.98;7.43;;;;;;;6.60;94.22;99261.09;5053691;28;20099;-65
2021/12/28 01:32:08;;;;;;;13.25;6.65;;;;;;;6.62;93.95;99265.25;5053486;28;20395;-65
2021/12/28 01:34:35;;;;;;;26.13;6.65;;;;;;;6.64;94.41;99271.16;5051469;28;20049;-64
2021/12/28 01:37:02;;;;;;;14.27;6.85;;;;;;;6.73;94.06;99270.19;5053104;28;20482;-64
2021/12/28 01:39:29;;;;;;;17.27;6.55;;;;;;;6.86;93.03;99261.78;5053130;28;20417;-64
2021/12/28 01:41:56;;;;;;;17.65;7.00;;;;;;;6.91;93.07;99267.38;5053004;28;20064;-64
2021/12/28 01:44:22;;;;;;;17.90;6.95;;;;;;;6.82;93.29;99249.91;5052058;28;20520;-64
2021/12/28 01:46:49;;;;;;;16.13;6.53;;;;;;;6.77;93.59;99252.22;5059374;28;20063;-66
2021/12/28 01:49:16;;;;;;;15.60;5.85;;;;;;;6.79;93.49;99250.25;5073196;28;20044;-64
2021/12/28 01:51:43;;;;;;;17.83;6.40;;;;;;;6.84;93.22;99240.03;5072678;28;20567;-64
2021/12/28 01:54:10;;;;;;;15.30;5.55;;;;;;;6.90;93.21;99246.44;5072725;28;20041;-64
2021/12/28 01:56:40;;;;;;;18.85;5.28;;;;;;;7.02;93.26;99249.53;5067564;28;20036;-64
2021/12/28 01:59:09;;;;;;;17.17;5.68;;;;;;;6.90;92.85;99247.25;5072785;28;20068;-64
2021/12/28 02:01:37;;;;;;;20.65;5.65;;;;;;;6.92;92.78;99241.81;5071747;28;20044;-64
2021/12/28 02:04:13;;;;;;;21.35;5.20;;;;;;;6.91;93.10;99240.16;5071139;28;20555;-65
2021/12/28 02:06:40;;;;;;;14.43;5.03;;;;;;;6.92;93.09;99244.47;5072535;28;20040;-65
2021/12/28 02:09:07;;;;;;;20.50;4.97;;;;;;;6.98;92.41;99241.16;5054655;28;20048;-65
2021/12/28 02:11:35;;;;;;;17.00;4.75;;;;;;;6.91;92.78;99235.72;5072903;28;20119;-65
2021/12/28 02:14:04;;;;;;;21.83;5.13;;;;;;;6.96;92.67;99242.31;5054789;28;20045;-64
2021/12/28 02:16:33;;;;;;;24.33;5.28;;;;;;;6.97;92.88;99241.31;5072630;28;20043;-64
2021/12/28 02:19:01;;;;;;;23.17;4.93;;;;;;;6.98;92.61;99232.41;5071277;28;20053;-64
2021/12/28 02:21:31;;;;;;;22.75;5.47;;;;;;;7.01;93.02;99232.91;5072570;28;20131;-64
2021/12/28 02:23:59;;;;;;;15.65;5.18;;;;;;;7.16;91.77;99233.03;5071483;28;20410;-65
2021/12/28 02:26:26;;;;;;;17.05;5.13;;;;;;;7.01;92.26;99229.47;5071301;28;20560;-64
2021/12/28 02:28:54;;;;;;;22.60;4.80;;;;;;;7.13;92.46;99229.91;5055161;28;20043;-64
2021/12/28 02:31:22;;;;;;;16.65;5.20;;;;;;;7.10;92.42;99231.09;5072351;28;20051;-65
2021/12/28 02:33:49;;;;;;;20.67;4.80;;;;;;;7.16;92.10;99225.13;5071133;28;20052;-65
2021/12/28 02:36:17;;;;;;;24.30;4.95;;;;;;;7.21;91.94;99224.63;5071106;28;20494;-65
2021/12/28 02:38:46;;;;;;;17.88;4.30;;;;;;;7.21;91.59;99235.19;5053097;28;20456;-65
2021/12/28 02:41:15;;;;;;;20.25;4.38;;;;;;;7.16;91.77;99226.94;5054843;28;20074;-65
2021/12/28 02:43:45;;;;;;;20.40;4.50;;;;;;;7.19;91.85;99227.44;5054877;28;20102;-64
2021/12/28 02:46:12;;;;;;;23.95;5.07;;;;;;;7.23;91.61;99220.00;5072546;28;20066;-64
2021/12/28 02:48:41;;;;;;;29.05;4.53;;;;;;;7.21;91.72;99216.72;5071144;28;20056;-64
2021/12/28 02:51:11;;;;;;;24.63;4.60;;;;;;;7.25;91.82;99208.28;5055017;28;20052;-64
2021/12/28 02:53:38;;;;;;;26.70;4.93;;;;;;;7.30;91.20;99216.50;5054994;28;20052;-65
2021/12/28 02:56:06;;;;;;;19.73;4.15;;;;;;;7.25;91.27;99216.19;5072302;28;20485;-64
2021/12/28 02:58:37;;;;;;;25.65;5.30;;;;;;;7.33;91.01;99206.59;5050838;28;20049;-64
2021/12/28 03:01:28;;;;;;;23.30;4.70;;;;;;;7.39;91.07;99211.22;5052024;28;20037;-65
2021/12/28 03:04:03;;;;;;;19.42;4.40;;;;;;;7.42;90.56;99210.84;5052431;28;20315;-65
2021/12/28 03:06:31;;;;;;;21.65;4.22;;;;;;;7.38;91.51;99206.94;5050409;28;20486;-64
2021/12/28 03:09:00;;;;;;;33.17;5.18;;;;;;;7.46;90.99;99199.81;5052145;28;20049;-65
2021/12/28 03:11:29;;;;;;;20.25;4.57;;;;;;;7.50;90.89;99197.66;5050876;28;20041;-65
2021/12/28 03:13:59;;;;;;;30.63;5.60;;;;;;;7.46;91.03;99189.25;5052225;28;20099;-65
2021/12/28 03:16:28;;;;;;;22.92;4.30;;;;;;;7.41;91.23;99191.56;5038221;28;20043;-64
2021/12/28 03:18:55;;;;;;;23.25;4.50;;;;;;;7.57;91.34;99182.78;5051755;28;20049;-64
2021/12/28 03:21:23;;;;;;;29.50;4.32;;;;;;;7.52;90.77;99186.94;5050934;28;20055;-64
2021/12/28 03:23:51;;;;;;;34.55;5.13;;;;;;;7.56;91.24;99180.31;5052012;28;20041;-66
2021/12/28 03:26:18;;;;;;;28.67;4.30;;;;;;;7.56;91.58;99185.56;5050867;28;20048;-66
2021/12/28 03:28:45;;;;;;;38.22;4.93;;;;;;;7.46;92.33;99176.06;5052311;28;20045;-66
2021/12/28 03:31:16;;;;;;;25.48;4.53;;;;;;;7.53;92.34;99173.56;5049016;28;20091;-66
2021/12/28 03:33:45;;;;;;;35.33;5.45;;;;;;;7.55;92.39;99168.94;5051771;28;20516;-66
2021/12/28 03:36:13;;;;;;;32.00;5.88;;;;;;;7.60;92.12;99161.28;5034453;28;20486;-66
2021/12/28 03:38:42;;;;;;;31.73;4.82;;;;;;;7.60;92.37;99168.41;5051731;28;20037;-66
2021/12/28 03:41:09;;;;;;;28.30;4.95;;;;;;;7.55;92.50;99171.56;5050967;28;20094;-65
2021/12/28 03:43:39;;;;;;;34.92;5.10;;;;;;;7.64;92.44;99162.63;5037926;28;20041;-66
2021/12/28 03:46:07;;;;;;;25.40;4.60;;;;;;;7.50;93.22;99156.25;5055358;28;20044;-66
2021/12/28 03:48:34;;;;;;;25.85;4.72;;;;;;;7.55;93.02;99150.47;5068507;28;20041;-65
2021/12/28 03:51:02;;;;;;;29.92;5.40;;;;;;;7.49;92.93;99149.34;5074052;28;20049;-65
2021/12/28 03:53:29;;;;;;;23.38;4.50;;;;;;;7.53;93.46;99141.06;5090506;28;20040;-66
2021/12/28 03:55:56;;;;;;;32.15;5.38;;;;;;;7.58;92.84;99146.63;5107748;28;20043;-65
2021/12/28 03:58:22;;;;;;;21.42;4.72;;;;;;;7.54;93.03;99140.88;5057497;28;20040;-65
2021/12/28 04:00:49;;;;;;;28.90;5.28;;;;;;;7.59;93.23;99135.91;5075022;28;20053;-65
2021/12/28 04:03:17;;;;;;;31.73;5.15;;;;;;;7.47;93.92;99146.03;5075174;28;20041;-65
2021/12/28 04:05:46;;;;;;;33.55;5.20;;;;;;;7.64;93.48;99135.38;5071874;28;20052;-66
2021/12/28 04:08:19;;;;;;;29.38;5.03;;;;;;;7.50;94.09;99135.13;5074000;28;20040;-65
2021/12/28 04:10:52;;;;;;;28.88;4.90;;;;;;;7.61;93.89;99133.09;5073755;28;20053;-65
2021/12/28 04:13:21;;;;;;;34.53;4.93;;;;;;;7.63;93.73;99137.19;5073768;28;20467;-65
2021/12/28 04:15:49;;;;;;;29.00;4.82;;;;;;;7.74;93.84;99128.06;5073942;28;20055;-65
2021/12/28 04:18:17;;;;;;;29.00;5.03;;;;;;;7.73;94.02;99134.38;5073083;28;20032;-65
2021/12/28 04:20:45;;;;;;;28.95;5.13;;;;;;;7.72;93.48;99129.25;5074810;28;20040;-66
2021/12/28 04:23:12;;;;;;;38.08;5.22;;;;;;;7.76;93.40;99123.44;5073661;28;20054;-65
2021/12/28 04:25:39;;;;;;;30.90;5.07;;;;;;;7.81;93.91;99120.28;5107526;28;20052;-66
2021/12/28 04:28:05;;;;;;;38.50;5.97;;;;;;;7.80;93.99;99124.72;5074667;28;20036;-66
2021/12/28 04:30:32;;;;;;;35.90;5.75;;;;;;;7.85;93.95;99108.38;5071751;28;20044;-66
2021/12/28 04:33:00;;;;;;;27.17;4.88;;;;;;;7.78;93.33;99115.34;5074322;28;20497;-66
2021/12/28 04:35:27;;;;;;;34.47;4.78;;;;;;;7.81;93.83;99110.53;5056496;28;20075;-66
2021/12/28 04:37:54;;;;;;;37.47;5.47;;;;;;;7.78;93.69;99108.22;5074167;28;20504;-65
2021/12/28 04:40:22;;;;;;;33.10;5.05;;;;;;;7.88;93.90;99105.38;5074444;28;20052;-66
2021/12/28 04:42:49;;;;;;;31.58;5.60;;;;;;;7.91;93.41;99099.72;5074449;28;20044;-66
2021/12/28 04:45:17;;;;;;;29.20;4.68;;;;;;;7.87;93.86;99106.38;5073810;28;20044;-66
2021/12/28 04:47:44;;;;;;;37.03;5.35;;;;;;;7.85;93.26;99103.91;5074257;28;20058;-65
2021/12/28 04:50:11;;;;;;;37.00;5.45;;;;;;;7.92;93.51;99097.94;5073300;28;20056;-65
2021/12/28 04:52:39;;;;;;;32.42;4.78;;;;;;;8.00;93.23;99100.50;5073955;28;20052;-66
2021/12/28 04:55:10;;;;;;;32.92;5.22;;;;;;;7.95;93.50;99095.75;5074030;28;20110;-64
2021/12/28 04:57:38;;;;;;;37.08;5.38;;;;;;;7.94;93.85;99098.56;5072994;28;20485;-66
2021/12/28 05:00:09;;;;;;;39.83;5.38;;;;;;;7.84;93.52;99096.16;5073501;28;20045;-66
2021/12/28 05:02:36;;;;;;;38.90;5.22;;;;;;;7.80;94.46;99097.50;5074081;28;20068;-65
2021/12/28 05:05:03;;;;;;;32.92;4.93;;;;;;;7.85;94.31;99093.34;5072103;28;20044;-65
2021/12/28 05:07:30;;;;;;;44.22;5.20;;;;;;;7.80;94.03;99086.94;5072494;28;20040;-66
2021/12/28 05:09:57;;;;;;;24.67;4.40;;;;;;;7.95;94.00;99087.84;5073609;28;20091;-65
2021/12/28 05:12:25;;;;;;;32.95;4.45;;;;;;;7.92;94.34;99085.53;5055902;28;20131;-65
2021/12/28 05:14:52;;;;;;;31.92;4.85;;;;;;;7.88;93.87;99089.53;5072446;28;20066;-65
2021/12/28 05:17:19;;;;;;;30.77;5.03;;;;;;;7.96;94.25;99092.09;5055286;28;20493;-65
2021/12/28 05:19:46;;;;;;;35.00;5.50;;;;;;;7.86;94.50;99079.16;5073008;28;20512;-64
2021/12/28 05:22:13;;;;;;;31.08;5.03;;;;;;;7.92;93.97;99077.63;5071953;28;20382;-66
2021/12/28 05:24:39;;;;;;;27.50;4.03;;;;;;;7.95;93.89;99079.06;5052096;28;20041;-66
2021/12/28 05:27:06;;;;;;;24.98;5.00;;;;;;;7.97;94.23;99077.91;5054605;28;20049;-64
2021/12/28 05:29:33;;;;;;;28.30;4.82;;;;;;;7.97;94.00;99079.75;5055504;28;20516;-65
2021/12/28 05:32:00;;;;;;;33.95;4.93;;;;;;;7.85;94.51;99081.97;5036043;28;20052;-66
2021/12/28 05:34:27;;;;;;;27.83;4.93;;;;;;;7.91;94.16;99078.59;5051553;28;20413;-66
2021/12/28 05:36:54;;;;;;;33.85;5.22;;;;;;;7.98;93.92;99073.44;5052140;28;20512;-66
2021/12/28 05:39:21;;;;;;;31.38;5.43;;;;;;;7.92;94.47;99074.97;5053122;28;20087;-66
2021/12/28 05:41:48;;;;;;;29.38;5.05;;;;;;;8.01;94.46;99068.63;5052170;28;20512;-66
2021/12/28 05:44:17;;;;;;;30.77;4.68;;;;;;;7.92;94.03;99074.16;5053186;28;20037;-66
2021/12/28 05:46:46;;;;;;;33.38;4.65;;;;;;;8.02;94.02;99062.34;5051980;28;20041;-65
2021/12/28 05:49:13;;;;;;;31.95;5.22;;;;;;;7.94;94.19;99072.16;5066384;28;20093;-66
2021/12/28 05:51:40;;;;;;;26.80;5.03;;;;;;;7.99;93.82;99064.53;5072980;28;20133;-65
2021/12/28 05:54:06;;;;;;;33.00;5.57;;;;;;;8.13;93.66;99060.25;5105308;28;20045;-66
2021/12/28 05:56:33;;;;;;;24.60;4.95;;;;;;;8.20;93.31;99063.84;5055330;28;20037;-64
2021/12/28 05:59:00;;;;;;;31.33;6.13;;;;;;;8.06;93.31;99061.00;5051682;28;20037;-66
2021/12/28 06:01:27;;;;;;;29.92;6.07;;;;;;;7.89;94.41;99064.75;5052749;28;20429;-66
2021/12/28 06:03:53;;;;;;;35.97;5.40;;;;;;;7.99;93.81;99062.69;5051032;28;20037;-66
2021/12/28 06:06:20;;;;;;;35.95;5.95;;;;;;;7.98;94.46;99060.25;5058363;28;20040;-65
2021/12/28 06:08:47;;;;;;;41.22;6.88;;;;;;;7.93;94.33;99059.94;5072759;28;20485;-65
2021/12/28 06:11:14;;;;;;;29.60;6.32;;;;;;;8.03;93.74;99056.06;5071487;28;20044;-65
2021/12/28 06:13:41;;;;;;;30.25;5.68;;;;;;;7.96;94.42;99059.59;5071420;28;20534;-65
2021/12/28 06:16:08;;;;;;;30.40;6.50;;;;;;;7.93;94.51;99052.03;5061641;28;20403;-65
2021/12/28 06:18:36;;;;;;;33.72;6.65;;;;;;;7.95;94.46;99060.59;5052466;28;20128;-66
2021/12/28 06:21:03;;;;;;;25.90;6.28;;;;;;;7.91;93.99;99059.31;5051261;28;20057;-66
2021/12/28 06:23:30;;;;;;;23.63;7.32;;;;;;;7.90;93.99;99052.41;5052685;28;20052;-65
2021/12/28 06:25:57;;;;;;;33.35;8.15;;;;;;;7.92;94.16;99045.13;5052665;28;20048;-65
2021/12/28 06:28:23;;;;;;;31.63;6.60;;;;;;;7.91;94.24;99051.38;5051264;28;20040;-65
2021/12/28 06:30:53;;;;;;;31.85;6.90;;;;;;;7.97;93.65;99043.59;5050859;28;20037;-66
2021/12/28 06:33:21;;;;;;;30.27;7.63;;;;;;;7.98;94.41;99050.50;5051313;28;20105;-65
2021/12/28 06:35:49;;;;;;;37.53;7.35;;;;;;;8.07;93.55;99045.97;5050964;28;20044;-66
2021/12/28 06:38:17;;;;;;;27.25;7.28;;;;;;;8.03;93.86;99048.13;5051251;28;20056;-65
2021/12/28 06:40:45;;;;;;;31.38;7.22;;;;;;;7.97;94.22;99048.88;5052379;28;20409;-66
2021/12/28 06:43:12;;;;;;;24.95;7.40;;;;;;;8.00;93.93;99048.47;5052248;28;20049;-66
2021/12/28 06:45:40;;;;;;;33.85;7.50;;;;;;;8.07;93.52;99044.13;5051172;28;20040;-66
2021/12/28 06:48:07;;;;;;;30.42;7.90;;;;;;;7.98;94.22;99052.31;5051965;28;20051;-64
2021/12/28 06:50:33;;;;;;;29.38;6.95;;;;;;;8.02;93.87;99048.31;5067806;28;20049;-63
2021/12/28 06:53:00;;;;;;;24.10;7.47;;;;;;;7.99;94.06;99056.63;5104594;28;20045;-64
2021/12/28 06:55:27;;;;;;;27.60;6.75;;;;;;;8.04;93.88;99060.34;5105009;28;20044;-64
2021/12/28 06:57:54;;;;;;;32.03;7.50;;;;;;;7.97;93.85;99054.16;5104783;28;20128;-66
2021/12/28 07:00:21;;;;;;;33.05;7.30;;;;;;;7.97;94.59;99054.16;5070823;28;20053;-64
2021/12/28 07:02:47;;;;;;;37.42;7.00;;;;;;;7.98;94.00;99061.06;5071827;28;20052;-64
2021/12/28 07:05:14;;;;;;;28.15;7.13;;;;;;;7.98;94.61;99054.97;5069302;28;20055;-64
2021/12/28 07:07:41;;;;;;;23.15;7.60;;;;;;;8.02;94.40;99057.06;5072182;28;20041;-64
2021/12/28 07:10:09;;;;;;;23.58;7.10;;;;;;;8.06;93.94;99055.72;5070987;28;20405;-64
2021/12/28 07:12:36;;;;;;;27.30;6.60;;;;;;;7.95;94.40;99053.50;5071906;28;20094;-66
2021/12/28 07:15:04;;;;;;;26.60;6.88;;;;;;;7.97;94.18;99048.88;5070863;28;20044;-66
2021/12/28 07:17:31;;;;;;;25.10;6.78;;;;;;;8.12;94.16;99058.66;5072788;28;20805;-66
2021/12/28 07:19:58;;;;;;;24.50;7.15;;;;;;;8.10;94.01;99056.19;5074757;28;20048;-65
2021/12/28 07:22:24;;;;;;;29.27;6.65;;;;;;;8.21;93.45;99054.91;5074913;28;20048;-65
2021/12/28 07:24:51;;;;;;;27.63;7.00;;;;;;;8.17;93.53;99058.94;5074173;28;20090;-65
2021/12/28 07:27:18;;;;;;;28.25;6.43;;;;;;;8.16;93.52;99049.34;5075785;28;20127;-65
2021/12/28 07:29:44;;;;;;;26.25;6.65;;;;;;;8.20;93.38;99047.97;5057884;28;20044;-65
2021/12/28 07:32:11;;;;;;;21.73;6.28;;;;;;;8.07;93.64;99052.06;5074027;28;20056;-65
2021/12/28 07:34:38;;;;;;;20.73;6.20;;;;;;;7.99;93.62;99049.50;5075376;28;20052;-65
2021/12/28 07:37:05;;;;;;;24.33;6.07;;;;;;;8.01;94.12;99041.41;5057930;28;20063;-65
2021/12/28 07:39:32;;;;;;;28.02;5.70;;;;;;;8.00;93.81;99030.00;5077226;28;20039;-65
2021/12/28 07:41:59;;;;;;;24.92;6.22;;;;;;;8.00;93.59;99013.34;5076529;28;20082;-65
2021/12/28 07:44:26;;;;;;;23.23;5.72;;;;;;;7.98;93.50;99004.78;5108167;28;20044;-65
2021/12/28 07:46:53;;;;;;;20.05;5.57;;;;;;;7.90;93.73;99003.06;5075338;28;20044;-65
2021/12/28 07:49:19;;;;;;;27.92;5.35;;;;;;;7.92;94.03;99014.25;5088053;28;20043;-65
2021/12/28 07:51:47;;;;;;;22.67;5.20;;;;;;;7.89;94.23;99019.88;5075414;28;20485;-65
2021/12/28 07:54:14;;;;;;;25.00;5.50;;;;;;;7.85;94.33;99029.16;5073035;28;20102;-65
2021/12/28 07:56:41;;;;;;;23.50;6.28;;;;;;;7.85;94.13;99034.44;5107531;28;20090;-66
2021/12/28 07:59:08;;;;;;;25.08;5.82;;;;;;;7.83;94.57;99036.44;5060654;28;20510;-65
2021/12/28 08:01:36;;;;;;;21.98;5.97;;;;;;;7.76;94.56;99040.78;5074608;28;20489;-66
2021/12/28 08:04:03;;;;;;;24.15;5.63;;;;;;;7.87;94.57;99049.09;5072348;28;20051;-65
2021/12/28 08:06:30;;;;;;;19.77;5.38;;;;;;;7.91;94.77;99054.03;5072963;28;20044;-65
2021/12/28 08:08:57;;;;;;;21.67;5.03;;;;;;;7.86;94.80;99055.38;5053984;28;20148;-65
2021/12/28 08:11:24;;;;;;;23.05;5.47;;;;;;;7.95;94.51;99048.22;5053607;28;20107;-66
2021/12/28 08:13:51;;;;;;;27.02;5.47;;;;;;;7.99;94.15;99059.25;5047853;28;20071;-65
2021/12/28 08:16:18;;;;;;;16.88;4.97;;;;;;;8.10;93.24;99056.19;5074739;28;20040;-64
2021/12/28 08:18:45;;;;;;;19.88;5.47;;;;;;;8.20;93.22;99058.56;5073599;28;20119;-65
2021/12/28 08:21:17;;;;;;;28.08;5.13;;;;;;;8.13;93.35;99068.19;5074793;28;20055;-65
2021/12/28 08:23:44;;;;;;;24.85;5.55;;;;;;;8.17;93.43;99072.13;5074388;28;20127;-66
2021/12/28 08:26:11;;;;;;;21.88;5.22;;;;;;;8.16;93.42;99070.47;5073353;28;20048;-64
2021/12/28 08:28:37;;;;;;;18.98;5.00;;;;;;;8.25;92.87;99072.84;5074240;28;20040;-65
2021/12/28 08:31:04;;;;;;;15.05;4.57;;;;;;;8.15;93.39;99063.53;5074694;28;20041;-65
2021/12/28 08:33:31;;;;;;;14.75;4.60;;;;;;;8.21;93.46;99057.56;5071235;28;20049;-65
2021/12/28 08:35:58;;;;;;;17.40;4.45;;;;;;;8.14;93.26;99060.09;5056517;28;20046;-65
2021/12/28 08:38:25;;;;;;;20.80;5.50;;;;;;;8.26;92.95;99058.66;5072840;28;20036;-65
2021/12/28 08:40:52;;;;;;;20.23;4.47;;;;;;;8.23;92.98;99058.19;5056723;28;20127;-65
2021/12/28 08:43:19;;;;;;;18.73;5.53;;;;;;;8.27;92.97;99051.56;5074189;28;20044;-64
2021/12/28 08:45:46;;;;;;;14.68;4.70;;;;;;;8.25;92.90;99054.38;5074304;28;20122;-65
2021/12/28 08:48:12;;;;;;;20.20;5.25;;;;;;;8.38;92.21;99047.66;5073914;28;20048;-65
2021/12/28 08:50:40;;;;;;;25.23;6.40;;;;;;;8.29;92.66;99057.47;5072849;28;20155;-65
2021/12/28 08:53:10;;;;;;;15.23;4.45;;;;;;;8.30;92.45;99059.13;5073877;28;20045;-65
2021/12/28 08:55:38;;;;;;;17.55;4.90;;;;;;;8.52;91.69;99060.09;5074037;28;20040;-65
2021/12/28 08:58:05;;;;;;;18.27;4.47;;;;;;;8.35;91.93;99051.47;5073826;28;20040;-65
2021/12/28 09:00:35;;;;;;;18.55;4.93;;;;;;;8.41;91.79;99048.09;5073235;28;20094;-65
2021/12/28 09:03:03;;;;;;;15.88;4.75;;;;;;;8.35;92.18;99056.75;5072480;28;20115;-65
2021/12/28 09:05:30;;;;;;;18.10;5.32;;;;;;;8.40;92.26;99054.41;5064406;28;20075;-65
2021/12/28 09:07:59;;;;;;;17.38;4.57;;;;;;;8.41;91.96;99049.94;5073677;28;20063;-65
2021/12/28 09:10:26;;;;;;;16.88;4.95;;;;;;;8.49;92.09;99044.56;5073840;28;20060;-65
2021/12/28 09:12:55;;;;;;;19.92;5.28;;;;;;;8.46;92.82;99044.97;5073733;28;20086;-65
2021/12/28 09:15:23;;;;;;;19.38;4.75;;;;;;;8.38;92.85;99045.81;5073685;28;20124;-64
2021/12/28 09:17:49;;;;;;;18.25;4.93;;;;;;;8.44;92.72;99045.13;5071788;28;20051;-65
2021/12/28 09:20:19;;;;;;;17.65;4.63;;;;;;;8.50;92.74;99042.78;5071256;28;20041;-64
2021/12/28 09:22:56;;;;;;;20.08;5.15;;;;;;;8.53;92.33;99034.47;5072834;28;20086;-65
2021/12/28 09:25:23;;;;;;;17.08;4.75;;;;;;;8.62;92.31;99042.13;5072597;28;20071;-65
2021/12/28 09:27:51;;;;;;;18.25;5.10;;;;;;;8.65;92.02;99041.75;5071487;28;20041;-64
2021/12/28 09:30:18;;;;;;;12.68;4.25;;;;;;;8.63;91.97;99040.31;5070440;28;20434;-65
2021/12/28 09:32:46;;;;;;;15.73;4.90;;;;;;;8.73;91.24;99037.38;5071710;28;20493;-65
2021/12/28 09:35:13;;;;;;;16.60;4.82;;;;;;;8.76;91.83;99029.09;5088963;28;20528;-64
2021/12/28 09:37:40;;;;;;;15.38;4.57;;;;;;;8.60;92.39;99030.09;5061389;28;20494;-65
2021/12/28 09:40:10;;;;;;;13.45;4.40;;;;;;;8.79;91.32;99034.00;5068122;28;20037;-65
2021/12/28 09:42:37;;;;;;;12.23;4.32;;;;;;;8.74;91.72;99031.91;5064273;28;20045;-65
2021/12/28 09:45:06;;;;;;;14.20;4.35;;;;;;;8.62;91.99;99025.44;5067616;28;20491;-65
2021/12/28 09:47:33;;;;;;;17.95;4.93;;;;;;;8.69;92.02;99026.34;5072241;28;20045;-65
2021/12/28 09:50:05;;;;;;;12.68;4.28;;;;;;;8.73;92.09;99026.81;5067108;28;20037;-65
2021/12/28 09:52:32;;;;;;;11.00;3.50;;;;;;;8.92;91.09;99026.22;5075300;28;20049;-65
2021/12/28 09:54:59;;;;;;;13.40;4.32;;;;;;;8.70;91.38;99013.97;5073886;28;20098;-65
2021/12/28 09:57:28;;;;;;;12.65;3.83;;;;;;;8.90;91.07;99030.09;5071477;28;20098;-65
2021/12/28 09:59:55;;;;;;;9.85;3.53;;;;;;;8.84;90.85;99027.16;5072103;28;20370;-65
2021/12/28 10:02:21;;;;;;;14.98;4.32;;;;;;;8.90;91.20;99024.78;5044787;28;20041;-65
2021/12/28 10:05:06;;;;;;;11.98;4.28;;;;;;;8.95;90.80;99023.22;5066285;28;20048;-65
2021/12/28 10:07:36;;;;;;;9.00;3.88;;;;;;;8.97;90.16;99021.22;5067355;28;20058;-65
2021/12/28 10:10:06;;;;;;;12.48;4.28;;;;;;;8.99;90.85;99019.19;5068688;28;20521;-65
2021/12/28 10:12:36;;;;;;;10.68;4.20;;;;;;;8.94;91.03;99020.78;5053362;28;20045;-65
2021/12/28 10:15:08;;;;;;;12.30;4.20;;;;;;;8.92;90.98;99009.56;5098556;28;20055;-65
2021/12/28 10:17:37;;;;;;;14.32;4.78;;;;;;;8.90;91.44;99016.84;5086279;28;20481;-65
2021/12/28 10:20:09;;;;;;;13.77;4.40;;;;;;;8.65;92.02;99006.56;5104999;28;20554;-65
2021/12/28 10:25:19;;;;;;;12.27;4.10;;;;;;;8.87;92.11;99004.00;5128088;27;20165;-66
2021/12/28 10:27:49;;;;;;;9.70;3.33;;;;;;;8.77;92.63;98999.81;5127111;28;20468;-65
2021/12/28 10:30:23;;;;;;;14.48;3.45;;;;;;;8.88;92.24;98993.25;5126012;27;20043;-66
2021/12/28 10:32:53;;;;;;;14.30;3.72;;;;;;;9.01;92.15;98988.09;5126124;28;20091;-65
2021/12/28 10:35:24;;;;;;;12.82;3.60;;;;;;;9.00;92.59;98986.47;5126283;28;20039;-66
2021/12/28 10:37:55;;;;;;;12.07;3.28;;;;;;;9.01;92.22;98976.69;5126105;28;20875;-65
2021/12/28 10:40:28;;;;;;;11.48;3.97;;;;;;;9.01;92.10;98959.00;5129234;28;20112;-66
2021/12/28 10:43:05;;;;;;;10.82;3.60;;;;;;;9.07;91.82;98961.91;5128090;28;20123;-65
2021/12/28 10:45:43;;;;;;;11.60;3.30;;;;;;;9.12;91.58;98960.34;5128011;28;20036;-65
2021/12/28 10:48:15;;;;;;;10.23;3.55;;;;;;;9.10;91.89;98953.59;5107845;28;20040;-65
2021/12/28 10:50:45;;;;;;;11.57;3.33;;;;;;;9.03;91.84;98946.41;5118212;28;20040;-65
2021/12/28 10:53:19;;;;;;;11.25;3.47;;;;;;;9.02;91.35;98943.94;5129222;28;20488;-65
2021/12/28 10:55:51;;;;;;;9.63;3.28;;;;;;;9.16;91.69;98947.56;5110769;28;20047;-65
2021/12/28 10:58:25;;;;;;;8.52;3.42;;;;;;;9.13;91.08;98943.47;5127357;27;20492;-65
2021/12/28 11:00:53;;;;;;;13.02;4.20;;;;;;;9.10;91.40;98938.53;5125562;28;20047;-65
2021/12/28 11:03:26;;;;;;;13.02;3.97;;;;;;;9.05;91.67;98930.34;5125480;28;20077;-66
2021/12/28 11:05:55;;;;;;;9.48;3.88;;;;;;;8.97;92.05;98925.19;5127413;28;20472;-65
2021/12/28 11:08:24;;;;;;;12.50;4.07;;;;;;;9.10;92.40;98925.31;5128702;28;20050;-65
2021/12/28 11:10:56;;;;;;;11.95;4.60;;;;;;;9.08;92.68;98924.69;5123806;27;20031;-65
2021/12/28 11:13:27;;;;;;;11.98;4.18;;;;;;;9.08;92.54;98923.84;5129470;27;20528;-64
2021/12/28 11:15:56;;;;;;;10.10;4.20;;;;;;;9.00;92.21;98911.56;5127943;28;20043;-65
2021/12/28 11:18:30;;;;;;;11.25;4.10;;;;;;;8.93;92.71;98914.16;5128503;27;20502;-65
2021/12/28 11:21:08;;;;;;;13.38;4.13;;;;;;;9.18;92.47;98897.91;5129831;28;20092;-65
2021/12/28 11:23:35;;;;;;;13.38;4.30;;;;;;;9.14;92.52;98902.75;5110845;28;20043;-65
2021/12/28 11:26:07;;;;;;;11.65;4.28;;;;;;;9.21;91.89;98893.06;5129803;27;20043;-65
2021/12/28 11:28:37;;;;;;;10.20;4.07;;;;;;;8.97;92.36;98894.28;5128210;28;20523;-65
2021/12/28 11:31:14;;;;;;;10.18;3.90;;;;;;;9.09;92.32;98884.00;5124878;27;20104;-65
2021/12/28 11:36:30;;;;;;;9.73;4.07;;;;;;;9.21;92.07;98879.84;5111849;27;20400;-66
2021/12/28 11:38:59;;;;;;;10.70;3.92;;;;;;;9.27;91.43;98878.25;5109660;28;20113;-66
2021/12/28 11:41:27;;;;;;;10.50;4.25;;;;;;;9.23;91.95;98869.06;5108437;28;20059;-65
2021/12/28 11:43:56;;;;;;;8.52;3.55;;;;;;;9.17;91.26;98868.00;5113272;28;20113;-66